Golden Princess — ZCDA9 — position and weather

sailwx.info

Track history (hours):
 
Tides and Currents Weather Stations Pressure Air Temp Water Temp Dewpoint Dewpoint Depression Visibility Wind Speed Wind Dir Waves Ship Positions

Golden Princess

Operator: Princess Cruises

Last reported at 2015-May-24 00:33 UTC. Time now 2015-May-24 19:01 UTC.
Position N 44°01' W 127°17'.

Length 289.6 m; beam 36 m; draft 8.5 m.

Type: Ship. MMSI: 310344000.

Date/timePositionNaut miles runAvg speedWind from/ knotsBaromVisibWave heightAir tempDewpointWater temp
2015-May-24 00:33N 44°01' W 127°17'4920.1
2015-May-23 22:06N 43°16' W 126°50'31119.9
2015-May-23 06:30N 38°32' W 124°02'1717.9
2015-May-23 05:33N 38°20' W 123°48'1817.8
2015-May-23 04:33N 38°11' W 123°28'1818.1
2015-May-23 03:33N 37°60' W 123°10'1918.7
2015-May-23 02:33N 37°50' W 122°50'1313.2
2015-May-23 01:33N 37°48' W 122°33'7 7.2
2015-May-23 00:32N 37°48' W 122°24'0 0.0
2015-May-22 23:29N 37°48' W 122°24'0 0.0
2015-May-22 22:29N 37°48' W 122°24'0 0.0
2015-May-22 21:31N 37°48' W 122°24'0 0.0
2015-May-22 20:25N 37°48' W 122°24'0 0.0
2015-May-22 19:33N 37°48' W 122°24'0 0.0
2015-May-22 18:27N 37°48' W 122°24'0 0.0
2015-May-22 17:32N 37°48' W 122°24'0 0.0
2015-May-22 16:32N 37°48' W 122°24'0 0.0
2015-May-22 15:10N 37°48' W 122°24'0 0.0
2015-May-22 14:25N 37°48' W 122°24'0 0.2
2015-May-22 13:33N 37°48' W 122°24'5 5.0
2015-May-22 12:33N 37°48' W 122°30'1212.1
2015-May-22 11:34N 37°45' W 122°45'1313.4
2015-May-22 10:34N 37°52' W 122°59'1413.9
2015-May-22 09:34N 37°60' W 123°13'1414.2
2015-May-22 08:34N 38°09' W 123°27'1414.3
2015-May-22 07:34N 38°16' W 123°43'1616.3
2015-May-22 06:34N 38°28' W 123°57'36420.1
2015-May-21 12:27N 44°28' W 125°10'2022.3
2015-May-21 11:33N 44°48' W 125°11'2221.8
2015-May-21 10:33N 45°10' W 125°12'2222.0
2015-May-21 09:33N 45°32' W 125°13'2222.0
2015-May-21 08:33N 45°54' W 125°14'2222.1
2015-May-21 07:33N 46°16' W 125°15'2222.0
2015-May-21 06:33N 46°38' W 125°16'2222.2
2015-May-21 05:33N 46°60' W 125°17'2222.2
2015-May-21 04:33N 47°22' W 125°18'2322.7
2015-May-21 03:33N 47°45' W 125°20'2221.5
2015-May-21 02:33N 48°06' W 125°20'2121.3
2015-May-21 01:33N 48°25' W 125°06'1818.3
2015-May-21 00:33N 48°29' W 124°39'1919.3
2015-May-20 23:33N 48°22' W 124°12'1918.8
2015-May-20 22:32N 48°16' W 123°45'1413.9
2015-May-20 21:33N 48°21' W 123°26'4 4.1
2015-May-20 20:31N 48°25' W 123°24'0 0.0
2015-May-20 19:33N 48°25' W 123°24'0 0.0
2015-May-20 18:33N 48°25' W 123°24'0 0.0
2015-May-20 17:32N 48°25' W 123°24'0 0.0
2015-May-20 16:32N 48°25' W 123°24'0 0.0
2015-May-20 15:31N 48°25' W 123°24'0 0.0
2015-May-20 14:31N 48°25' W 123°24'0 0.1
2015-May-20 13:33N 48°25' W 123°24'7 6.9
2015-May-20 12:33N 48°18' W 123°25'1010.1
2015-May-20 11:33N 48°13' W 123°39'1312.8
2015-May-20 10:33N 48°14' W 123°58'1313.4
2015-May-20 09:33N 48°20' W 124°16'1413.5
2015-May-20 08:33N 48°26' W 124°35'1313.5
2015-May-20 07:33N 48°29' W 124°54'1313.3
2015-May-20 06:33N 48°29' W 125°14'1313.3
2015-May-20 05:33N 48°36' W 125°32'1515.4
2015-May-20 04:33N 48°44' W 125°52'1615.9
2015-May-20 03:33N 48°54' W 126°11'1615.6
2015-May-20 02:33N 49°03' W 126°30'1716.7
2015-May-20 01:33N 49°13' W 126°50'1918.2
2015-May-20 00:30N 49°25' W 127°13'2618.8
2015-May-19 23:07N 49°42' W 127°44'56412.3
2015-May-18 01:08N 58°05' W 134°58'1221.1
2015-May-18 00:33N 58°10' W 135°19'1919.0
2015-May-17 23:33N 58°18' W 135°51'1211.6
2015-May-17 22:33N 58°28' W 136°02'1616.0
2015-May-17 21:33N 58°43' W 136°14'17 3.1
2015-May-17 16:19N 58°52' W 136°41'1316.8
2015-May-17 15:33N 58°45' W 136°20'1717.5
2015-May-17 14:34N 58°30' W 136°04'1010.0
2015-May-17 13:33N 58°21' W 135°57'1211.7
2015-May-17 12:33N 58°16' W 135°36'  
2015-May-15 04:00N 53°36' W 133°24'37720.9 310 / 231014.610.8 0.511.0 9.212.0
2015-May-14 10:00N 47°48' W 129°36'   330 / 121019.210.8 0.511.0 6.114.0
Track history (hours):
 
Tides and Currents Weather Stations Pressure Air Temp Water Temp Dewpoint Dewpoint Depression Visibility Wind Speed Wind Dir Waves Ship Positions

Golden Princess

Operator: Princess Cruises

Last reported at 2015-May-24 00:33 UTC. Time now 2015-May-24 19:01 UTC.
Position N 44°01' W 127°17'.

Length 289.6 m; beam 36 m; draft 8.5 m.

Type: Ship. MMSI: 310344000.

Date/timePositionNaut miles runAvg speedWind from/ knotsBaromVisibWave heightAir tempDewpointWater temp
2015-May-24 00:33N 44°01' W 127°17'4920.1
2015-May-23 22:06N 43°16' W 126°50'31119.9
2015-May-23 06:30N 38°32' W 124°02'1717.9
2015-May-23 05:33N 38°20' W 123°48'1817.8
2015-May-23 04:33N 38°11' W 123°28'1818.1
2015-May-23 03:33N 37°60' W 123°10'1918.7
2015-May-23 02:33N 37°50' W 122°50'1313.2
2015-May-23 01:33N 37°48' W 122°33'7 7.2
2015-May-23 00:32N 37°48' W 122°24'0 0.0
2015-May-22 23:29N 37°48' W 122°24'0 0.0
2015-May-22 22:29N 37°48' W 122°24'0 0.0
2015-May-22 21:31N 37°48' W 122°24'0 0.0
2015-May-22 20:25N 37°48' W 122°24'0 0.0
2015-May-22 19:33N 37°48' W 122°24'0 0.0
2015-May-22 18:27N 37°48' W 122°24'0 0.0
2015-May-22 17:32N 37°48' W 122°24'0 0.0
2015-May-22 16:32N 37°48' W 122°24'0 0.0
2015-May-22 15:10N 37°48' W 122°24'0 0.0
2015-May-22 14:25N 37°48' W 122°24'0 0.2
2015-May-22 13:33N 37°48' W 122°24'5 5.0
2015-May-22 12:33N 37°48' W 122°30'1212.1
2015-May-22 11:34N 37°45' W 122°45'1313.4
2015-May-22 10:34N 37°52' W 122°59'1413.9
2015-May-22 09:34N 37°60' W 123°13'1414.2
2015-May-22 08:34N 38°09' W 123°27'1414.3
2015-May-22 07:34N 38°16' W 123°43'1616.3
2015-May-22 06:34N 38°28' W 123°57'36420.1
2015-May-21 12:27N 44°28' W 125°10'2022.3
2015-May-21 11:33N 44°48' W 125°11'2221.8
2015-May-21 10:33N 45°10' W 125°12'2222.0
2015-May-21 09:33N 45°32' W 125°13'2222.0
2015-May-21 08:33N 45°54' W 125°14'2222.1
2015-May-21 07:33N 46°16' W 125°15'2222.0
2015-May-21 06:33N 46°38' W 125°16'2222.2
2015-May-21 05:33N 46°60' W 125°17'2222.2
2015-May-21 04:33N 47°22' W 125°18'2322.7
2015-May-21 03:33N 47°45' W 125°20'2221.5
2015-May-21 02:33N 48°06' W 125°20'2121.3
2015-May-21 01:33N 48°25' W 125°06'1818.3
2015-May-21 00:33N 48°29' W 124°39'1919.3
2015-May-20 23:33N 48°22' W 124°12'1918.8
2015-May-20 22:32N 48°16' W 123°45'1413.9
2015-May-20 21:33N 48°21' W 123°26'4 4.1
2015-May-20 20:31N 48°25' W 123°24'0 0.0
2015-May-20 19:33N 48°25' W 123°24'0 0.0
2015-May-20 18:33N 48°25' W 123°24'0 0.0
2015-May-20 17:32N 48°25' W 123°24'0 0.0
2015-May-20 16:32N 48°25' W 123°24'0 0.0
2015-May-20 15:31N 48°25' W 123°24'0 0.0
2015-May-20 14:31N 48°25' W 123°24'0 0.1
2015-May-20 13:33N 48°25' W 123°24'7 6.9
2015-May-20 12:33N 48°18' W 123°25'1010.1
2015-May-20 11:33N 48°13' W 123°39'1312.8
2015-May-20 10:33N 48°14' W 123°58'1313.4
2015-May-20 09:33N 48°20' W 124°16'1413.5
2015-May-20 08:33N 48°26' W 124°35'1313.5
2015-May-20 07:33N 48°29' W 124°54'1313.3
2015-May-20 06:33N 48°29' W 125°14'1313.3
2015-May-20 05:33N 48°36' W 125°32'1515.4
2015-May-20 04:33N 48°44' W 125°52'1615.9
2015-May-20 03:33N 48°54' W 126°11'1615.6
2015-May-20 02:33N 49°03' W 126°30'1716.7
2015-May-20 01:33N 49°13' W 126°50'1918.2
2015-May-20 00:30N 49°25' W 127°13'2618.8
2015-May-19 23:07N 49°42' W 127°44'56412.3
2015-May-18 01:08N 58°05' W 134°58'1221.1
2015-May-18 00:33N 58°10' W 135°19'1919.0
2015-May-17 23:33N 58°18' W 135°51'1211.6
2015-May-17 22:33N 58°28' W 136°02'1616.0
2015-May-17 21:33N 58°43' W 136°14'17 3.1
2015-May-17 16:19N 58°52' W 136°41'1316.8
2015-May-17 15:33N 58°45' W 136°20'1717.5
2015-May-17 14:34N 58°30' W 136°04'1010.0
2015-May-17 13:33N 58°21' W 135°57'1211.7
2015-May-17 12:33N 58°16' W 135°36'  
2015-May-15 04:00N 53°36' W 133°24'37720.9 310 / 231014.610.8 0.511.0 9.212.0
2015-May-14 10:00N 47°48' W 129°36'   330 / 121019.210.8 0.511.0 6.114.0

Dump ship's entire track history